Time;durP1;ratioP1;P1;durP2;ratioP2;P2;SDS_P1;SDS_P2;PMS_P1;PMS_P2;Temp;Humidity;BMP_temperature;BMP_pressure;BME280_temperature;BME280_humidity;BME280_pressure;Samples;Min_cycle;Max_cycle;Signal;HPM_P1;HPM_P2
2023/05/07 00:01:10;;;;;;;5.65;5.15;;;;;;;15.82;76.35;101516.41;5029875;28;20100;-88
2023/05/07 00:03:36;;;;;;;7.60;5.85;;;;;;;15.82;75.86;101514.63;5013022;28;20029;-88
2023/05/07 00:06:01;;;;;;;7.20;6.53;;;;;;;15.83;76.20;101515.47;5032928;28;20051;-88
2023/05/07 00:08:27;;;;;;;9.15;5.80;;;;;;;15.84;76.29;101519.84;5030305;28;20100;-88
2023/05/07 00:10:52;;;;;;;7.32;5.80;;;;;;;15.93;75.93;101519.38;5033533;28;20056;-87
2023/05/07 00:13:17;;;;;;;7.97;6.70;;;;;;;15.97;76.56;101531.63;5031998;28;20633;-87
2023/05/07 00:15:42;;;;;;;7.70;6.93;;;;;;;15.89;76.58;101507.16;5030972;28;20029;-88
2023/05/07 00:18:08;;;;;;;8.95;6.72;;;;;;;15.94;77.19;101514.91;5031815;28;20353;-88
2023/05/07 00:20:33;;;;;;;9.48;6.18;;;;;;;15.92;75.48;101508.81;5032870;28;20108;-87
2023/05/07 00:22:58;;;;;;;7.25;6.53;;;;;;;16.00;76.26;101514.63;5028900;28;20030;-88
2023/05/07 00:25:24;;;;;;;9.43;6.82;;;;;;;16.04;76.12;101510.81;5031038;28;20037;-87
2023/05/07 00:27:49;;;;;;;9.40;7.10;;;;;;;16.06;75.95;101506.28;5030122;28;20059;-88
2023/05/07 00:30:14;;;;;;;7.65;6.72;;;;;;;16.13;75.63;101507.66;5031744;28;20033;-88
2023/05/07 00:32:40;;;;;;;7.88;6.88;;;;;;;16.08;75.79;101491.03;5030594;28;20340;-88
2023/05/07 00:35:06;;;;;;;8.95;7.95;;;;;;;16.05;77.18;101500.09;5029974;28;20476;-88
2023/05/07 00:37:31;;;;;;;9.15;6.88;;;;;;;15.91;76.90;101488.41;5030366;28;20034;-88
2023/05/07 00:39:57;;;;;;;7.90;7.10;;;;;;;16.00;77.27;101503.94;5030477;28;20076;-88
2023/05/07 00:42:23;;;;;;;10.05;8.05;;;;;;;15.93;77.25;101483.84;5013697;28;20037;-88
2023/05/07 00:44:49;;;;;;;8.68;7.78;;;;;;;15.99;77.42;101494.19;5026645;28;20468;-88
2023/05/07 00:47:14;;;;;;;8.18;7.38;;;;;;;15.99;77.05;101488.84;5029840;28;20030;-88
2023/05/07 00:49:45;;;;;;;8.35;7.38;;;;;;;16.02;76.78;101491.38;5031496;28;20427;-88
2023/05/07 00:52:15;;;;;;;7.65;6.85;;;;;;;16.03;76.28;101482.44;5031148;28;20033;-88
2023/05/07 00:54:42;;;;;;;8.35;7.55;;;;;;;16.05;76.19;101488.56;5029983;28;20037;-88
2023/05/07 00:57:09;;;;;;;9.32;6.90;;;;;;;16.06;76.47;101488.47;5030821;28;20021;-88
2023/05/07 00:59:35;;;;;;;8.55;7.68;;;;;;;16.02;77.42;101486.91;5026264;28;20032;-88
2023/05/07 01:02:01;;;;;;;9.07;7.57;;;;;;;15.95;76.58;101471.31;5025813;28;20029;-87
2023/05/07 01:04:26;;;;;;;8.30;7.50;;;;;;;16.04;76.31;101490.38;5021986;28;20095;-88
2023/05/07 01:06:54;;;;;;;9.23;8.15;;;;;;;15.97;77.06;101478.28;5030180;28;20033;-88
2023/05/07 01:09:20;;;;;;;9.93;8.57;;;;;;;15.95;78.24;101479.31;5008306;28;20515;-88
2023/05/07 01:11:47;;;;;;;9.77;8.75;;;;;;;15.99;77.53;101491.53;5029751;28;20029;-88
2023/05/07 01:14:13;;;;;;;10.88;8.60;;;;;;;15.91;78.00;101485.75;5027234;28;20490;-88
2023/05/07 01:16:40;;;;;;;10.55;8.98;;;;;;;15.89;77.05;101484.94;5029845;28;20108;-88
2023/05/07 01:19:06;;;;;;;9.50;8.45;;;;;;;15.87;78.43;101487.72;5030760;28;20029;-88
2023/05/07 01:21:33;;;;;;;10.13;8.15;;;;;;;15.88;77.09;101483.22;5031361;28;20036;-88
2023/05/07 01:23:58;;;;;;;12.27;8.45;;;;;;;15.89;77.42;101476.94;5030757;28;20205;-88
2023/05/07 01:26:24;;;;;;;9.82;8.68;;;;;;;15.89;77.86;101476.94;5013532;28;20488;-88
2023/05/07 01:28:50;;;;;;;9.68;8.70;;;;;;;16.00;76.93;101487.94;5012136;28;20091;-88
2023/05/07 01:31:17;;;;;;;10.30;8.50;;;;;;;15.91;77.47;101467.94;5024319;28;20029;-88
2023/05/07 01:33:44;;;;;;;11.77;8.55;;;;;;;15.95;77.33;101468.66;5012626;28;20119;-88
2023/05/07 01:36:11;;;;;;;9.90;8.55;;;;;;;15.92;77.89;101463.47;5028966;28;20120;-88
2023/05/07 01:38:38;;;;;;;11.73;9.10;;;;;;;15.79;78.39;101458.78;5027253;28;20028;-87
2023/05/07 01:41:03;;;;;;;9.95;8.95;;;;;;;15.67;79.06;101451.44;5012068;28;20510;-87
2023/05/07 01:43:30;;;;;;;13.35;8.73;;;;;;;15.57;78.57;101445.69;5006349;28;20021;-88
2023/05/07 01:45:57;;;;;;;9.07;8.00;;;;;;;15.62;77.99;101450.78;5029436;28;20045;-88
2023/05/07 01:48:24;;;;;;;9.60;7.88;;;;;;;15.63;78.98;101457.81;5007726;28;20041;-88
2023/05/07 01:50:50;;;;;;;11.75;9.57;;;;;;;15.50;80.12;101456.72;5004599;28;20476;-87
2023/05/07 01:53:15;;;;;;;9.93;8.07;;;;;;;15.52;79.38;101457.47;5008350;28;20037;-88
2023/05/07 01:55:41;;;;;;;11.57;8.68;;;;;;;15.53;78.85;101445.91;5009302;28;20021;-88
2023/05/07 01:58:06;;;;;;;11.55;10.32;;;;;;;15.56;79.80;101451.91;5007497;28;20036;-88
2023/05/07 02:00:31;;;;;;;11.32;9.77;;;;;;;15.58;80.16;101459.84;5010550;28;20133;-88
2023/05/07 02:02:57;;;;;;;10.98;9.88;;;;;;;15.47;80.42;101454.19;5008723;28;20072;-87
2023/05/07 02:05:22;;;;;;;10.60;9.13;;;;;;;15.47;79.52;101449.72;5008069;28;20096;-87
2023/05/07 02:07:48;;;;;;;10.02;9.02;;;;;;;15.49;78.05;101447.00;5009146;28;20022;-88
2023/05/07 02:10:13;;;;;;;10.73;8.52;;;;;;;15.58;78.94;101451.88;5008821;28;20053;-88
2023/05/07 02:12:38;;;;;;;12.48;10.52;;;;;;;15.63;78.90;101465.81;5007824;28;20649;-87
2023/05/07 02:15:05;;;;;;;14.95;10.50;;;;;;;15.57;79.58;101453.66;5010564;28;20026;-87
2023/05/07 02:17:31;;;;;;;13.00;9.82;;;;;;;15.46;79.63;101432.03;5009642;28;20432;-87
2023/05/07 02:19:57;;;;;;;12.15;10.15;;;;;;;15.48;79.96;101437.25;5008287;28;20071;-87
2023/05/07 02:22:22;;;;;;;14.35;11.43;;;;;;;15.48;80.44;101445.25;5010503;28;20482;-88
2023/05/07 02:24:47;;;;;;;12.73;10.68;;;;;;;15.38;80.72;101441.34;5009578;28;20144;-87
2023/05/07 02:27:13;;;;;;;13.07;11.80;;;;;;;15.36;80.55;101443.22;5010164;28;20026;-88
2023/05/07 02:29:38;;;;;;;11.50;10.23;;;;;;;15.49;79.47;101461.19;5006989;28;20018;-88
2023/05/07 02:32:03;;;;;;;12.90;11.13;;;;;;;15.49;79.60;101449.66;5006885;28;20489;-88
2023/05/07 02:34:29;;;;;;;12.48;10.85;;;;;;;15.52;78.96;101458.34;5007646;28;20040;-88
2023/05/07 02:36:55;;;;;;;12.80;11.45;;;;;;;15.51;79.22;101451.28;5006115;28;20072;-87
2023/05/07 02:39:21;;;;;;;16.48;12.80;;;;;;;15.59;80.09;101458.06;5006031;28;20036;-87
2023/05/07 02:41:46;;;;;;;16.60;12.68;;;;;;;15.46;80.48;101450.66;5008050;28;20037;-87
2023/05/07 02:44:11;;;;;;;16.70;12.60;;;;;;;15.44;79.71;101460.56;5007690;28;20124;-88
2023/05/07 02:46:36;;;;;;;13.80;12.15;;;;;;;15.51;78.98;101472.63;5002444;28;20041;-87
2023/05/07 02:49:02;;;;;;;15.68;13.32;;;;;;;15.52;80.03;101461.00;5009875;28;20489;-87
2023/05/07 02:51:27;;;;;;;16.33;13.07;;;;;;;15.45;78.53;101448.97;5012346;28;20083;-87
2023/05/07 02:53:52;;;;;;;16.33;13.43;;;;;;;15.54;79.39;101461.81;5028822;28;20025;-88
2023/05/07 02:56:18;;;;;;;18.70;12.95;;;;;;;15.50;78.58;101456.72;5009886;28;20104;-88
2023/05/07 02:58:43;;;;;;;15.38;13.63;;;;;;;15.53;79.23;101461.91;5025701;28;20021;-88
2023/05/07 03:01:08;;;;;;;18.70;14.13;;;;;;;15.49;79.27;101457.66;5028599;28;20072;-88
2023/05/07 03:03:34;;;;;;;15.50;13.70;;;;;;;15.52;80.12;101469.00;5026200;28;20364;-88
2023/05/07 03:05:59;;;;;;;15.25;13.48;;;;;;;15.42;79.64;101448.25;5028220;28;20064;-88
2023/05/07 03:08:25;;;;;;;14.75;12.90;;;;;;;15.48;79.13;101462.13;5028391;28;20033;-87
2023/05/07 03:10:50;;;;;;;20.73;13.73;;;;;;;15.49;79.93;101457.66;5028590;28;20048;-87
2023/05/07 03:13:16;;;;;;;17.95;14.38;;;;;;;15.43;78.82;101455.28;5028828;28;20025;-88
2023/05/07 03:15:41;;;;;;;15.13;13.60;;;;;;;15.43;79.34;101461.47;5029066;28;20400;-88
2023/05/07 03:18:07;;;;;;;16.65;12.40;;;;;;;15.41;78.38;101455.38;5012255;28;20107;-88
2023/05/07 03:20:32;;;;;;;14.65;13.15;;;;;;;15.40;79.13;101453.66;5029688;28;20029;-88
2023/05/07 03:22:57;;;;;;;15.27;12.93;;;;;;;15.46;79.48;101455.16;5028999;28;20296;-88
2023/05/07 03:25:23;;;;;;;17.15;14.65;;;;;;;15.47;80.04;101454.19;5027164;28;20030;-88
2023/05/07 03:27:48;;;;;;;16.58;14.88;;;;;;;15.46;80.51;101450.66;5028849;28;20133;-88
2023/05/07 03:30:14;;;;;;;15.35;13.77;;;;;;;15.55;78.99;101463.53;5007069;28;20079;-87
2023/05/07 03:32:39;;;;;;;16.52;14.75;;;;;;;15.53;78.93;101445.91;5017967;28;20033;-88
2023/05/07 03:35:05;;;;;;;19.92;15.80;;;;;;;15.47;80.55;101440.88;5021115;28;20491;-88
2023/05/07 03:37:30;;;;;;;17.95;16.05;;;;;;;15.49;80.73;101449.66;5028360;28;20456;-89
2023/05/07 03:39:55;;;;;;;17.50;15.40;;;;;;;15.33;81.19;101444.22;5027025;28;20218;-89
2023/05/07 03:42:21;;;;;;;19.13;15.93;;;;;;;15.24;81.97;101439.38;5028682;28;20061;-88
2023/05/07 03:44:46;;;;;;;17.50;14.93;;;;;;;15.19;81.38;101434.28;5009688;28;20049;-88
2023/05/07 03:47:13;;;;;;;17.77;15.18;;;;;;;15.28;81.40;101441.81;5008096;28;20491;-88
2023/05/07 03:49:38;;;;;;;16.92;13.95;;;;;;;15.23;79.80;101433.19;5008385;28;20050;-88
2023/05/07 03:52:04;;;;;;;16.25;14.43;;;;;;;15.27;79.79;101433.91;5006963;28;20057;-88
2023/05/07 03:54:30;;;;;;;18.20;14.90;;;;;;;15.23;80.48;101433.19;5008061;28;21040;-87
2023/05/07 03:56:55;;;;;;;20.90;16.13;;;;;;;15.32;80.58;101440.72;5007750;28;20456;-88
2023/05/07 03:59:20;;;;;;;18.15;15.40;;;;;;;15.42;80.76;101458.91;5012787;28;20042;-88
2023/05/07 04:01:46;;;;;;;18.75;15.63;;;;;;;15.45;80.57;101462.28;5013335;28;20030;-87
2023/05/07 04:04:11;;;;;;;19.67;15.88;;;;;;;15.41;80.34;101446.53;5011517;28;20036;-88
2023/05/07 04:06:37;;;;;;;21.17;16.75;;;;;;;15.42;80.47;101456.22;5008138;28;20025;-88
2023/05/07 04:09:02;;;;;;;22.02;16.85;;;;;;;15.44;80.93;101460.56;5004261;28;20397;-88
2023/05/07 04:11:27;;;;;;;18.25;15.65;;;;;;;15.48;79.65;101469.25;5008442;28;20350;-87
2023/05/07 04:13:53;;;;;;;20.45;16.58;;;;;;;15.40;80.90;101460.78;5007722;28;20025;-88
2023/05/07 04:16:18;;;;;;;20.23;16.35;;;;;;;15.42;80.53;101473.06;5006975;28;20444;-88
2023/05/07 04:18:43;;;;;;;15.93;14.23;;;;;;;15.49;79.78;101486.97;5007371;28;20029;-88
2023/05/07 04:21:19;;;;;;;15.30;13.68;;;;;;;15.45;78.63;101482.75;5011344;28;20022;-88
2023/05/07 04:23:44;;;;;;;18.27;15.80;;;;;;;15.38;79.87;101473.31;5009538;28;20037;-88
2023/05/07 04:26:10;;;;;;;19.90;17.67;;;;;;;15.35;81.65;101474.34;5012490;28;20033;-87
2023/05/07 04:28:35;;;;;;;19.27;16.50;;;;;;;15.44;81.09;101483.69;5010118;28;20488;-88
2023/05/07 04:31:01;;;;;;;23.20;19.02;;;;;;;15.34;81.48;101469.06;5011720;28;20033;-87
2023/05/07 04:33:26;;;;;;;21.45;18.27;;;;;;;15.37;82.10;101482.25;5009885;28;20040;-87
2023/05/07 04:35:51;;;;;;;22.10;18.23;;;;;;;15.37;82.19;101479.59;5009179;28;20028;-87
2023/05/07 04:38:18;;;;;;;21.88;18.10;;;;;;;15.26;82.06;101466.81;5010463;28;20032;-87
2023/05/07 04:40:43;;;;;;;19.48;16.70;;;;;;;15.38;81.35;101490.16;5011012;28;20034;-87
2023/05/07 04:43:09;;;;;;;19.60;17.50;;;;;;;15.34;82.04;101472.63;5008520;28;20101;-87
2023/05/07 04:45:35;;;;;;;18.95;16.45;;;;;;;15.41;81.26;101478.50;5008144;28;20029;-87
2023/05/07 04:48:00;;;;;;;20.23;17.60;;;;;;;15.45;81.34;101469.41;5009616;28;20026;-87
2023/05/07 04:50:26;;;;;;;20.88;16.60;;;;;;;15.53;81.12;101476.09;5033156;28;20048;-88
2023/05/07 04:52:51;;;;;;;20.95;17.05;;;;;;;15.64;80.17;101488.03;5011755;28;20361;-87
2023/05/07 04:55:17;;;;;;;18.88;16.05;;;;;;;15.68;79.95;101478.94;5029841;28;20025;-87
2023/05/07 04:57:42;;;;;;;22.52;18.33;;;;;;;15.61;80.29;101475.69;5027089;28;20022;-87
2023/05/07 05:00:13;;;;;;;23.25;18.30;;;;;;;15.65;80.34;101481.75;5011630;28;20448;-87
2023/05/07 05:02:39;;;;;;;22.30;18.10;;;;;;;15.71;80.68;101487.63;5027790;28;20368;-87
2023/05/07 05:05:05;;;;;;;26.17;20.48;;;;;;;15.70;80.54;101474.38;5027261;28;20024;-88
2023/05/07 05:07:30;;;;;;;23.25;18.65;;;;;;;15.79;81.35;101492.56;5032301;28;20064;-87
2023/05/07 05:09:55;;;;;;;20.23;18.02;;;;;;;15.81;80.78;101496.91;5029793;28;20041;-88
2023/05/07 05:12:20;;;;;;;19.65;17.38;;;;;;;15.89;79.74;101498.28;5034191;28;20033;-88
2023/05/07 05:14:46;;;;;;;24.00;19.60;;;;;;;15.92;80.66;101495.47;5015113;28;20037;-87
2023/05/07 05:17:12;;;;;;;22.88;18.38;;;;;;;15.92;80.03;101492.81;5028501;28;20030;-87
2023/05/07 05:19:37;;;;;;;22.73;19.50;;;;;;;15.96;80.55;101491.72;5034382;28;20070;-87
2023/05/07 05:22:03;;;;;;;24.00;20.27;;;;;;;15.95;81.43;101504.19;5020801;28;20037;-87
2023/05/07 05:24:29;;;;;;;21.90;18.52;;;;;;;15.93;80.96;101513.19;5005438;28;20083;-87
2023/05/07 05:26:55;;;;;;;24.23;20.30;;;;;;;15.82;82.02;101490.63;5028314;28;20111;-87
2023/05/07 05:29:20;;;;;;;23.27;19.10;;;;;;;15.95;81.13;101509.50;5019498;28;20209;-87
2023/05/07 05:31:45;;;;;;;22.60;18.83;;;;;;;16.01;80.87;101495.84;5027912;28;20480;-87
2023/05/07 05:34:11;;;;;;;23.40;19.40;;;;;;;16.14;80.34;101504.06;5027813;28;20033;-87
2023/05/07 05:36:36;;;;;;;21.25;18.95;;;;;;;16.19;80.20;101498.50;5028907;28;20057;-87
2023/05/07 05:39:01;;;;;;;22.50;20.10;;;;;;;16.27;79.56;101505.16;5025669;28;20435;-87
2023/05/07 05:41:26;;;;;;;20.83;17.55;;;;;;;16.26;78.14;101503.41;5028154;28;20037;-87
2023/05/07 05:43:52;;;;;;;20.00;17.83;;;;;;;16.35;78.80;101504.72;5014697;28;20477;-87
2023/05/07 05:46:17;;;;;;;22.90;18.70;;;;;;;16.36;79.02;101497.56;5011406;28;20022;-86
2023/05/07 05:48:42;;;;;;;21.63;18.90;;;;;;;16.46;78.96;101517.47;5026137;28;20040;-87
2023/05/07 05:51:08;;;;;;;23.35;19.08;;;;;;;16.52;78.36;101518.03;5006214;28;20116;-87
2023/05/07 05:53:33;;;;;;;23.88;20.10;;;;;;;16.56;79.26;101513.41;5005969;28;20053;-87
2023/05/07 05:55:59;;;;;;;21.60;18.42;;;;;;;16.57;77.47;101510.63;5007516;28;20074;-87
2023/05/07 05:58:24;;;;;;;22.95;20.10;;;;;;;16.66;77.74;101519.94;5007633;28;20504;-87
2023/05/07 06:00:52;;;;;;;19.77;17.70;;;;;;;16.76;77.69;101526.53;5011265;28;20389;-87
2023/05/07 06:03:17;;;;;;;25.17;20.80;;;;;;;16.77;78.76;101514.91;5009862;28;20053;-87
2023/05/07 06:05:42;;;;;;;22.20;19.63;;;;;;;16.87;77.48;101515.25;5008865;28;20053;-87
2023/05/07 06:08:07;;;;;;;23.00;19.73;;;;;;;16.91;77.68;101508.78;5008707;28;20025;-87
2023/05/07 06:10:33;;;;;;;21.15;18.33;;;;;;;16.99;76.39;101519.91;5023644;28;20041;-87
2023/05/07 06:12:58;;;;;;;23.42;20.83;;;;;;;17.04;78.01;101517.00;5008693;28;20033;-87
2023/05/07 06:15:23;;;;;;;26.73;19.40;;;;;;;17.05;77.12;101516.03;5005785;28;20037;-87
2023/05/07 06:17:49;;;;;;;23.00;20.55;;;;;;;17.09;77.41;101518.44;5009853;28;20025;-86
2023/05/07 06:20:14;;;;;;;22.17;18.27;;;;;;;17.11;77.51;101526.38;5024280;28;20467;-87
2023/05/07 06:22:39;;;;;;;22.17;19.85;;;;;;;17.12;77.18;101521.91;5017300;28;20654;-87
2023/05/07 06:25:05;;;;;;;21.98;19.67;;;;;;;17.15;76.59;101525.25;5007718;28;20021;-87
2023/05/07 06:27:30;;;;;;;24.20;21.08;;;;;;;17.11;77.03;101521.03;5006766;28;20030;-88
2023/05/07 06:29:56;;;;;;;24.83;20.38;;;;;;;17.23;75.73;101516.81;5004572;28;20029;-88
2023/05/07 06:32:21;;;;;;;25.35;19.17;;;;;;;17.41;76.03;101526.44;5031354;28;20067;-88
2023/05/07 06:34:46;;;;;;;22.45;20.13;;;;;;;17.42;75.32;101519.28;5005735;28;20508;-88
2023/05/07 06:37:11;;;;;;;21.15;18.52;;;;;;;17.46;75.42;101508.31;5004841;28;20037;-87
2023/05/07 06:39:37;;;;;;;24.08;20.20;;;;;;;17.43;75.99;101521.00;5002834;28;20029;-88
2023/05/07 06:42:04;;;;;;;22.08;19.73;;;;;;;17.49;74.49;101521.53;5004711;28;20052;-88
2023/05/07 06:44:29;;;;;;;20.30;17.73;;;;;;;17.60;75.41;101524.41;5005002;28;20084;-88
2023/05/07 06:46:55;;;;;;;28.58;21.35;;;;;;;17.61;76.14;101522.59;5003866;28;20022;-87
2023/05/07 06:49:20;;;;;;;24.48;18.77;;;;;;;17.71;75.32;101521.09;5019680;28;20042;-88
2023/05/07 06:51:45;;;;;;;21.73;19.40;;;;;;;17.85;74.74;101541.72;5028694;28;20119;-87
2023/05/07 06:54:10;;;;;;;25.88;21.17;;;;;;;17.85;74.16;101531.88;5027976;28;20499;-88
2023/05/07 06:56:36;;;;;;;23.65;20.63;;;;;;;17.90;74.82;101526.25;5026000;28;20025;-88
2023/05/07 06:59:02;;;;;;;22.27;18.55;;;;;;;17.94;74.20;101543.84;5015745;28;20452;-88
2023/05/07 07:01:28;;;;;;;22.00;18.50;;;;;;;17.85;73.44;101539.03;5029828;28;20060;-88
2023/05/07 07:03:53;;;;;;;25.13;20.92;;;;;;;17.68;74.10;101536.50;5028557;28;20029;-88
2023/05/07 07:06:18;;;;;;;24.23;20.92;;;;;;;17.68;74.95;101542.69;5027364;28;20025;-88
2023/05/07 07:08:44;;;;;;;25.52;20.33;;;;;;;17.53;74.53;101524.84;5010176;28;20067;-88
2023/05/07 07:11:10;;;;;;;23.15;19.90;;;;;;;17.61;75.68;101552.00;5028731;28;20067;-88
2023/05/07 07:13:35;;;;;;;20.92;18.65;;;;;;;17.62;75.03;101537.69;5025400;28;20103;-88
2023/05/07 07:16:00;;;;;;;23.35;20.83;;;;;;;17.72;75.64;101554.03;5020214;28;20033;-88
2023/05/07 07:18:26;;;;;;;22.55;19.52;;;;;;;17.74;75.62;101557.53;5026430;28;20480;-88
2023/05/07 07:20:51;;;;;;;26.63;20.13;;;;;;;17.75;74.80;101553.91;5021034;28;20221;-88
2023/05/07 07:23:16;;;;;;;25.13;20.15;;;;;;;17.69;74.69;101536.38;5028818;28;20480;-88
2023/05/07 07:25:41;;;;;;;26.85;20.48;;;;;;;17.74;75.95;101541.50;5025222;28;20034;-88
2023/05/07 07:28:07;;;;;;;25.20;21.00;;;;;;;17.69;76.60;101532.84;5024766;28;20071;-89
2023/05/07 07:30:32;;;;;;;22.13;19.52;;;;;;;17.71;76.00;101536.28;5006092;28;20018;-88
2023/05/07 07:33:02;;;;;;;26.00;21.35;;;;;;;17.59;76.31;101529.88;5026293;28;20027;-88
2023/05/07 07:35:31;;;;;;;27.00;20.75;;;;;;;17.65;75.80;101547.34;5005083;28;20088;-88
2023/05/07 07:37:57;;;;;;;23.55;20.80;;;;;;;17.81;75.23;101553.53;5031521;28;20032;-88
2023/05/07 07:40:22;;;;;;;24.40;20.98;;;;;;;17.85;75.72;101555.09;5028272;28;20028;-88
2023/05/07 07:42:48;;;;;;;21.33;18.70;;;;;;;18.05;73.98;101560.13;5026564;28;20361;-89
2023/05/07 07:45:13;;;;;;;25.88;21.52;;;;;;;18.17;75.12;101568.34;5025246;28;20040;-89
2023/05/07 07:47:41;;;;;;;21.63;18.17;;;;;;;18.28;73.55;101557.88;5025662;28;20119;-88
2023/05/07 07:50:08;;;;;;;21.90;18.13;;;;;;;18.51;72.47;101567.16;5024082;28;20068;-89
2023/05/07 07:52:34;;;;;;;26.20;20.73;;;;;;;18.67;73.11;101559.91;5024200;28;20065;-89
2023/05/07 07:54:59;;;;;;;21.30;18.00;;;;;;;18.84;71.55;101557.06;5023341;28;20380;-88
2023/05/07 07:57:24;;;;;;;23.80;21.10;;;;;;;18.85;71.77;101563.28;5010358;28;20033;-89
2023/05/07 07:59:50;;;;;;;21.02;18.08;;;;;;;19.05;70.70;101567.34;5029886;28;20052;-88
2023/05/07 08:02:15;;;;;;;21.40;19.10;;;;;;;19.27;69.62;101564.16;5029872;28;20028;-89
2023/05/07 08:04:43;;;;;;;24.25;20.70;;;;;;;19.29;70.58;101560.41;5039035;28;20040;-88
2023/05/07 08:07:08;;;;;;;23.67;19.40;;;;;;;19.34;69.67;101558.28;5031809;28;20025;-89
2023/05/07 08:09:33;;;;;;;22.00;19.58;;;;;;;19.56;69.52;101567.59;5022687;28;20022;-88
2023/05/07 08:11:59;;;;;;;21.52;18.88;;;;;;;19.72;68.76;101564.78;5029857;28;20029;-88
2023/05/07 08:14:24;;;;;;;21.05;17.13;;;;;;;19.84;68.30;101558.59;5027103;28;20443;-89
2023/05/07 08:16:49;;;;;;;22.92;18.60;;;;;;;20.25;67.63;101566.50;5028672;28;20460;-89
2023/05/07 08:19:15;;;;;;;24.10;19.02;;;;;;;20.63;66.82;101558.47;5033610;28;20023;-89
2023/05/07 08:21:40;;;;;;;24.73;18.25;;;;;;;21.08;66.01;101569.59;5034005;28;20108;-89
2023/05/07 08:24:06;;;;;;;19.70;17.67;;;;;;;21.46;64.22;101571.31;5016586;28;20131;-89
2023/05/07 08:26:31;;;;;;;20.80;16.63;;;;;;;21.86;62.67;101574.53;5030786;28;20029;-89
2023/05/07 08:28:56;;;;;;;20.42;16.08;;;;;;;22.43;60.77;101575.59;5029089;28;20075;-89
2023/05/07 08:31:21;;;;;;;21.08;17.55;;;;;;;22.52;61.13;101576.69;5033471;28;20033;-88
2023/05/07 08:33:47;;;;;;;17.77;14.90;;;;;;;22.44;62.13;101571.06;5028225;28;20665;-89
2023/05/07 08:36:12;;;;;;;16.50;14.80;;;;;;;22.50;60.77;101575.97;5032882;28;20029;-88
2023/05/07 08:38:40;;;;;;;19.20;17.13;;;;;;;22.47;61.68;101578.88;5029394;28;20032;-88
2023/05/07 08:41:07;;;;;;;19.38;16.38;;;;;;;22.19;61.79;101570.25;5010629;28;20021;-88
2023/05/07 08:43:33;;;;;;;17.35;15.57;;;;;;;22.17;61.32;101576.75;5027436;28;20419;-89
2023/05/07 08:46:02;;;;;;;16.40;14.65;;;;;;;22.16;62.54;101578.59;5027718;28;20091;-89
2023/05/07 08:48:29;;;;;;;17.17;15.43;;;;;;;22.15;62.45;101576.88;5027146;28;20493;-89
2023/05/07 08:50:54;;;;;;;17.17;15.30;;;;;;;21.91;60.93;101576.88;5026739;28;20049;-89
2023/05/07 08:53:20;;;;;;;18.55;15.85;;;;;;;21.90;61.89;101578.72;5029331;28;20353;-88
2023/05/07 08:55:47;;;;;;;18.50;16.00;;;;;;;21.91;61.16;101566.97;5014215;28;20137;-89
2023/05/07 08:58:12;;;;;;;16.23;14.63;;;;;;;22.05;60.75;101571.28;5034179;28;20022;-88
2023/05/07 09:00:40;;;;;;;14.82;13.30;;;;;;;22.17;60.39;101569.53;5027270;28;20068;-89
2023/05/07 09:03:05;;;;;;;15.52;13.98;;;;;;;22.22;60.80;101583.50;5027201;28;20040;-89
2023/05/07 09:05:30;;;;;;;18.85;15.13;;;;;;;22.15;60.47;101583.13;5030799;28;20025;-89
2023/05/07 09:07:59;;;;;;;17.52;15.07;;;;;;;22.20;61.01;101584.63;5029528;28;20091;-89
2023/05/07 09:10:25;;;;;;;17.27;15.45;;;;;;;22.27;60.43;101589.38;5028964;28;20108;-89
2023/05/07 09:12:51;;;;;;;17.50;15.48;;;;;;;22.29;61.02;101578.47;5036518;28;20040;-89
2023/05/07 09:15:16;;;;;;;16.15;14.45;;;;;;;22.22;60.19;101572.72;5028600;28;20033;-89
2023/05/07 09:17:43;;;;;;;18.73;14.40;;;;;;;22.16;60.60;101581.28;5020083;28;20028;-89
2023/05/07 09:20:09;;;;;;;15.93;14.35;;;;;;;22.23;60.55;101569.06;5034321;28;20521;-89
2023/05/07 09:22:36;;;;;;;17.45;15.13;;;;;;;22.10;59.09;101570.94;5028862;28;20041;-89
2023/05/07 09:25:02;;;;;;;16.88;14.40;;;;;;;22.07;60.87;101568.50;5023325;28;20029;-89
2023/05/07 09:27:27;;;;;;;17.13;15.30;;;;;;;22.19;61.37;101577.50;5034605;28;20476;-89
2023/05/07 09:29:52;;;;;;;18.55;15.15;;;;;;;22.15;59.58;101585.81;5011086;28;20021;-89
2023/05/07 09:32:18;;;;;;;15.18;13.68;;;;;;;22.02;60.89;101579.63;5029254;28;20029;-88
2023/05/07 09:34:44;;;;;;;16.35;14.75;;;;;;;22.17;61.46;101590.22;5027248;28;20468;-89
2023/05/07 09:37:12;;;;;;;13.95;12.57;;;;;;;22.31;60.62;101587.31;5023848;28;20499;-89
2023/05/07 09:39:45;;;;;;;14.27;12.75;;;;;;;22.48;60.88;101584.19;5025919;28;20029;-89
2023/05/07 09:42:11;;;;;;;16.05;13.05;;;;;;;22.65;60.05;101582.81;5020301;28;20029;-89
2023/05/07 09:44:37;;;;;;;15.82;14.27;;;;;;;22.80;60.01;101594.22;5025351;28;20032;-88
2023/05/07 09:47:05;;;;;;;16.50;13.85;;;;;;;22.88;59.74;101575.59;5023131;28;20057;-89
2023/05/07 09:49:34;;;;;;;16.50;14.85;;;;;;;22.95;59.90;101581.41;5026036;28;20056;-90
2023/05/07 09:52:01;;;;;;;16.83;14.93;;;;;;;22.85;58.36;101575.88;5028230;28;20025;-90
2023/05/07 09:54:30;;;;;;;14.48;12.95;;;;;;;23.14;58.79;101593.28;5027682;28;20716;-90
2023/05/07 09:56:56;;;;;;;17.08;15.35;;;;;;;23.40;58.17;101591.13;5028804;28;20025;-90
2023/05/07 09:59:22;;;;;;;18.90;15.18;;;;;;;23.62;58.39;101584.81;5015568;28;20055;-90
2023/05/07 10:01:48;;;;;;;15.18;13.57;;;;;;;23.61;57.06;101583.09;5005509;28;20045;-92
2023/05/07 10:04:14;;;;;;;16.35;14.60;;;;;;;23.46;55.75;101586.22;5010110;28;20031;-92
2023/05/07 10:06:40;;;;;;;14.32;12.75;;;;;;;23.62;57.45;101592.91;5031443;28;20021;-92
2023/05/07 10:09:06;;;;;;;15.10;13.35;;;;;;;23.97;57.42;101582.84;5034036;28;20036;-92
2023/05/07 10:11:33;;;;;;;14.90;13.38;;;;;;;24.37;56.29;101588.44;5029342;28;20029;-91
2023/05/07 10:13:59;;;;;;;15.05;13.25;;;;;;;24.56;53.71;101585.84;5027184;28;20021;-91
2023/05/07 10:16:25;;;;;;;15.85;13.38;;;;;;;24.71;55.37;101593.59;5028114;28;20038;-90
2023/05/07 10:18:51;;;;;;;14.10;12.77;;;;;;;25.11;54.41;101577.41;5029754;28;20090;-91
2023/05/07 10:21:24;;;;;;;16.08;13.75;;;;;;;25.08;53.40;101588.50;5014784;28;20025;-91
2023/05/07 10:24:19;;;;;;;18.85;14.70;;;;;;;25.13;55.04;101580.81;5027361;28;20029;-91
2023/05/07 10:26:48;;;;;;;15.10;13.60;;;;;;;25.22;53.59;101584.56;5024215;28;20060;-92
2023/05/07 10:29:47;;;;;;;16.42;14.68;;;;;;;25.48;53.61;101593.88;5023257;28;20036;-91
2023/05/07 10:32:50;;;;;;;17.27;13.30;;;;;;;25.84;54.12;101595.09;5026892;28;20520;-92
2023/05/07 10:35:20;;;;;;;13.00;11.70;;;;;;;25.87;52.21;101585.81;4964796;28;20034;-92
2023/05/07 10:37:46;;;;;;;13.90;12.50;;;;;;;26.03;52.04;101582.53;5000190;28;20503;-92
2023/05/07 10:40:12;;;;;;;13.00;11.65;;;;;;;26.21;50.65;101594.34;5029962;28;20467;-92
2023/05/07 10:42:37;;;;;;;13.40;12.15;;;;;;;26.02;50.74;101588.94;5029959;28;20029;-92
2023/05/07 10:45:16;;;;;;;15.32;11.05;;;;;;;26.15;51.30;101589.47;5007705;28;20624;-92
2023/05/07 10:48:11;;;;;;;13.48;11.18;;;;;;;26.00;50.92;101593.66;5026618;28;20499;-90
2023/05/07 10:50:43;;;;;;;12.30;11.02;;;;;;;25.94;50.16;101586.94;5012045;28;20539;-90
2023/05/07 10:53:18;;;;;;;13.27;11.88;;;;;;;26.05;50.54;101589.50;5028593;28;20018;-90
2023/05/07 10:55:54;;;;;;;14.25;12.77;;;;;;;26.04;51.29;101592.38;5022721;28;20105;-90
2023/05/07 10:58:29;;;;;;;15.30;13.85;;;;;;;26.17;51.06;101577.50;5032441;28;20103;-90
2023/05/07 11:00:59;;;;;;;14.40;12.90;;;;;;;26.32;50.35;101587.91;5024919;28;20466;-90
2023/05/07 11:03:28;;;;;;;16.27;14.05;;;;;;;26.42;49.68;101586.00;5025602;28;20610;-89
2023/05/07 11:06:13;;;;;;;15.48;13.95;;;;;;;26.62;50.46;101581.41;5013882;28;20598;-89
2023/05/07 11:08:56;;;;;;;15.80;14.20;;;;;;;26.46;49.53;101584.75;5024393;28;20032;-90